Weather at Maplewood Orchard Airport

Public forecast

Using degrees Fahrenheit for public forecast. Weather courtesy of forecast.io.

Closest aviation weather report (METAR) to Maplewood Orchard Airport

Report is more than 6 hours old.

Closest report is Dayton-Wright Brothers Airport, 12.6 nm (23.3 km) NNW. Retrieved 2021/06/17 14:53 UTC (5 days ago):

KMGY 171453Z AUTO 22009KT 10SM CLR 24/12 A3007 RMK AO2 SLP177 T02390122 50005

Closest aviation forecast (TAF) to Maplewood Orchard Airport

Closest forecast is Wilmington Airpark, 17.6 nm (32.7 km) E. Retrieved 2021-06-23 00:36 UTC (2 hours ago):

TAF KILN 222335Z 2300/2324 36007KT P6SM SKC FM230200 19003KT P6SM SKC FM231300 16007KT P6SM FEW150 BKN250